KAND/AND METAR and TAF weather

Enter ICAO airport designator
Station Type Date Time Source
KAND METAR 2019/08/19 22:21 UTC NOAA

KAND 192221Z AUTO 24008KT 10SM VCTS -RA FEW044 FEW055 BKN110 24/20 A3009 RMK AO2 LTG DSNT ALQDS RAB15 TSE15 P0000 T02390200


Station Type Date Time Source
KAND Decoded METAR 2019/08/19 22:21 UTC NOAA

ANDERSON COUNTY AIRPORT, SC, United States (KAND) 34-30N 82-43W 239M
Aug 19, 2019 - 06:21 PM EDT / 2019.08.19 2221 UTC
Wind: from the WSW (240 degrees) at 9 MPH (8 KT):0
Visibility: 10 mile(s):0
Sky conditions: mostly cloudy
Weather: thunder in the vicinity; light rain; Lightning observed
Precipitation last hour: A trace
Temperature: 75.0 F (23.9 C)
Dew Point: 68.0 F (20.0 C)
Relative Humidity: 78%
Pressure (altimeter): 30.09 in. Hg (1018 hPa)
ob: KAND 192221Z AUTO 24008KT 10SM VCTS -RA FEW044 FEW055 BKN110 24/20 A3009 RMK AO2 LTG DSNT ALQDS RAB15 TSE15 P0000 T02390200
cycle: 22

Station Type Date Time Source
KAND TAF 2019/08/19 18:40 UTC NOAA

TAF KAND 191738Z 1918/2018 15005KT P6SM VCTS BKN050CB
TEMPO 1920/1923 4SM TSRA BKN025CB
FM192300 12005KT P6SM VCTS BKN060CB
FM200300 12003KT P6SM BKN045
FM200400 VRB02KT P6SM BKN080

Example: see airport list